SVA504 OKKK-OEJN
Flight info
| Callsign | SVA504 |
|---|---|
| Flight time | 2h 16m |
| Altitude | 38000 |
| Route | DEKOB P517 KSB B417 GAS G674 PMA B544 RBG/N0451F390 B544 NOMDA |
| Aircraft | A20N/M-SDE2E3FGHIRWXY/LB1 |
Departure
| Time | 2026-04-27 12:06 |
|---|---|
| Airport | Kuwait International Airport (OKKK) |
Arrival
| Time | 2026-04-27 14:23 |
|---|---|
| Airport | King Abdulaziz International Airport (OEJN) |
| Time | Latitude | Longitude | Altitude | Speed | Heading |
|---|---|---|---|---|---|
| 2026-04-27 11:15 | 29.23804 | 47.97290 | 167 ft | 0 kts | 247° |
| 2026-04-27 11:52 | 29.23805 | 47.97295 | 166 ft | 3 kts | 248° |
| 2026-04-27 11:53 | 29.23813 | 47.97316 | 166 ft | 3 kts | 252° |
| 2026-04-27 11:53 | 29.23819 | 47.97338 | 166 ft | 3 kts | 253° |
| 2026-04-27 11:53 | 29.23824 | 47.97361 | 166 ft | 3 kts | 248° |
| 2026-04-27 11:53 | 29.23833 | 47.97379 | 166 ft | 3 kts | 210° |
| 2026-04-27 11:54 | 29.23841 | 47.97383 | 166 ft | 1 kts | 155° |
| 2026-04-27 11:58 | 29.23833 | 47.97387 | 166 ft | 2 kts | 155° |
| 2026-04-27 11:58 | 29.23810 | 47.97400 | 166 ft | 5 kts | 155° |
| 2026-04-27 11:59 | 29.23773 | 47.97421 | 166 ft | 7 kts | 153° |
| 2026-04-27 11:59 | 29.23725 | 47.97448 | 166 ft | 6 kts | 153° |
| 2026-04-27 11:59 | 29.23675 | 47.97457 | 164 ft | 9 kts | 195° |
| 2026-04-27 11:59 | 29.23634 | 47.97388 | 163 ft | 13 kts | 246° |
| 2026-04-27 12:00 | 29.23597 | 47.97293 | 162 ft | 13 kts | 250° |
| 2026-04-27 12:00 | 29.23560 | 47.97192 | 161 ft | 15 kts | 244° |
| 2026-04-27 12:00 | 29.23506 | 47.97066 | 158 ft | 20 kts | 244° |
| 2026-04-27 12:00 | 29.23444 | 47.96915 | 155 ft | 19 kts | 245° |
| 2026-04-27 12:01 | 29.23402 | 47.96812 | 155 ft | 6 kts | 245° |
| 2026-04-27 12:01 | 29.23391 | 47.96783 | 156 ft | 2 kts | 253° |
| 2026-04-27 12:01 | 29.23393 | 47.96769 | 156 ft | 3 kts | 279° |
| 2026-04-27 12:01 | 29.23416 | 47.96738 | 156 ft | 8 kts | 335° |
| 2026-04-27 12:02 | 29.23485 | 47.96699 | 156 ft | 14 kts | 334° |
| 2026-04-27 12:02 | 29.23586 | 47.96647 | 155 ft | 18 kts | 335° |
| 2026-04-27 12:02 | 29.23706 | 47.96583 | 155 ft | 21 kts | 334° |
| 2026-04-27 12:02 | 29.23846 | 47.96508 | 154 ft | 24 kts | 335° |
| 2026-04-27 12:03 | 29.23995 | 47.96427 | 155 ft | 17 kts | 335° |
| 2026-04-27 12:03 | 29.24029 | 47.96409 | 156 ft | 0 kts | 335° |
| 2026-04-27 12:03 | 29.24076 | 47.96384 | 165 ft | 2 kts | 335° |
| 2026-04-27 12:03 | 29.24093 | 47.96367 | 165 ft | 5 kts | 306° |
| 2026-04-27 12:04 | 29.24091 | 47.96322 | 165 ft | 7 kts | 245° |
| 2026-04-27 12:04 | 29.24068 | 47.96266 | 167 ft | 8 kts | 244° |
| 2026-04-27 12:04 | 29.24036 | 47.96192 | 172 ft | 0 kts | 243° |
| 2026-04-27 12:04 | 29.24030 | 47.96179 | 172 ft | 4 kts | 239° |
| 2026-04-27 12:05 | 29.24006 | 47.96173 | 172 ft | 4 kts | 154° |
| 2026-04-27 12:05 | 29.23972 | 47.96197 | 172 ft | 9 kts | 153° |
| 2026-04-27 12:05 | 29.23813 | 47.96283 | 173 ft | 55 kts | 155° |
| 2026-04-27 12:05 | 29.23280 | 47.96568 | 179 ft | 112 kts | 155° |
| 2026-04-27 12:06 | 29.22428 | 47.97022 | 182 ft | 156 kts | 154° |
| 2026-04-27 12:06 | 29.21448 | 47.97526 | 681 ft | 158 kts | 153° |
| 2026-04-27 12:06 | 29.20404 | 47.98030 | 1220 ft | 166 kts | 157° |
| 2026-04-27 12:06 | 29.19319 | 47.98508 | 1880 ft | 164 kts | 158° |
| 2026-04-27 12:07 | 29.18259 | 47.98983 | 2516 ft | 162 kts | 158° |
| 2026-04-27 12:07 | 29.17248 | 47.99517 | 3188 ft | 159 kts | 155° |
| 2026-04-27 12:07 | 29.16257 | 48.00129 | 3670 ft | 167 kts | 155° |
| 2026-04-27 12:07 | 29.15131 | 48.00808 | 3834 ft | 199 kts | 156° |
| 2026-04-27 12:08 | 29.13824 | 48.01550 | 3907 ft | 214 kts | 157° |
| 2026-04-27 12:08 | 29.12480 | 48.02285 | 3996 ft | 215 kts | 157° |
| 2026-04-27 12:08 | 29.11127 | 48.03015 | 3997 ft | 215 kts | 158° |
| 2026-04-27 12:08 | 29.09772 | 48.03736 | 3997 ft | 215 kts | 159° |
| 2026-04-27 12:09 | 29.08351 | 48.04164 | 3992 ft | 210 kts | 177° |
| 2026-04-27 12:09 | 29.06896 | 48.04060 | 3992 ft | 211 kts | 189° |
| 2026-04-27 12:09 | 29.05407 | 48.03806 | 4059 ft | 224 kts | 188° |
| 2026-04-27 12:09 | 29.03774 | 48.03552 | 4373 ft | 248 kts | 188° |
| 2026-04-27 12:10 | 29.02049 | 48.03293 | 5105 ft | 255 kts | 189° |
| 2026-04-27 12:10 | 29.00271 | 48.03026 | 5946 ft | 260 kts | 189° |
| 2026-04-27 12:10 | 28.98453 | 48.02749 | 6697 ft | 267 kts | 189° |
| 2026-04-27 12:10 | 28.96597 | 48.02469 | 7520 ft | 271 kts | 189° |
| 2026-04-27 12:11 | 28.94710 | 48.02187 | 8344 ft | 276 kts | 190° |
| 2026-04-27 12:11 | 28.92786 | 48.01898 | 9075 ft | 283 kts | 191° |
| 2026-04-27 12:11 | 28.90804 | 48.01599 | 9818 ft | 289 kts | 191° |
| 2026-04-27 12:11 | 28.88788 | 48.01293 | 10452 ft | 300 kts | 191° |
| 2026-04-27 12:12 | 28.86642 | 48.00962 | 10706 ft | 323 kts | 191° |
| 2026-04-27 12:12 | 28.84343 | 48.00610 | 11057 ft | 340 kts | 191° |
| 2026-04-27 12:12 | 28.81989 | 48.00256 | 11839 ft | 342 kts | 191° |
| 2026-04-27 12:12 | 28.79613 | 47.99900 | 12635 ft | 346 kts | 191° |
| 2026-04-27 12:13 | 28.77239 | 47.99544 | 13425 ft | 349 kts | 191° |
| 2026-04-27 12:13 | 28.74822 | 47.99180 | 14140 ft | 353 kts | 191° |
| 2026-04-27 12:13 | 28.72384 | 47.98803 | 14877 ft | 354 kts | 193° |
| 2026-04-27 12:13 | 28.70004 | 47.98100 | 15592 ft | 352 kts | 204° |
| 2026-04-27 12:14 | 28.67786 | 47.96927 | 16307 ft | 351 kts | 213° |
| 2026-04-27 12:14 | 28.65744 | 47.95379 | 16995 ft | 353 kts | 217° |
| 2026-04-27 12:14 | 28.63714 | 47.93782 | 17698 ft | 356 kts | 217° |
| 2026-04-27 12:14 | 28.61667 | 47.92185 | 18332 ft | 359 kts | 217° |
| 2026-04-27 12:15 | 28.59599 | 47.90579 | 18972 ft | 360 kts | 217° |
| 2026-04-27 12:15 | 28.57543 | 47.88983 | 19343 ft | 363 kts | 217° |
| 2026-04-27 12:15 | 28.55459 | 47.87367 | 19490 ft | 362 kts | 217° |
| 2026-04-27 12:15 | 28.53386 | 47.85732 | 19612 ft | 362 kts | 220° |
| 2026-04-27 12:16 | 28.51465 | 47.83869 | 19810 ft | 363 kts | 226° |
| 2026-04-27 12:16 | 28.49694 | 47.81828 | 20489 ft | 362 kts | 227° |
| 2026-04-27 12:16 | 28.47914 | 47.79797 | 21161 ft | 363 kts | 227° |
| 2026-04-27 12:16 | 28.46115 | 47.77757 | 21773 ft | 366 kts | 227° |
| 2026-04-27 12:17 | 28.44308 | 47.75710 | 22402 ft | 368 kts | 227° |
| 2026-04-27 12:17 | 28.42513 | 47.73677 | 23022 ft | 370 kts | 227° |
| 2026-04-27 12:17 | 28.40661 | 47.71579 | 23577 ft | 372 kts | 227° |
| 2026-04-27 12:17 | 28.38853 | 47.69530 | 24119 ft | 372 kts | 228° |
| 2026-04-27 12:18 | 28.37021 | 47.67456 | 24664 ft | 373 kts | 228° |
| 2026-04-27 12:18 | 28.35180 | 47.65372 | 25166 ft | 374 kts | 228° |
| 2026-04-27 12:18 | 28.33335 | 47.63284 | 25659 ft | 375 kts | 228° |
| 2026-04-27 12:18 | 28.31481 | 47.61187 | 26164 ft | 376 kts | 228° |
| 2026-04-27 12:19 | 28.29620 | 47.59083 | 26645 ft | 378 kts | 228° |
| 2026-04-27 12:19 | 28.27750 | 47.56970 | 27112 ft | 379 kts | 229° |
| 2026-04-27 12:19 | 28.25868 | 47.54844 | 27564 ft | 380 kts | 229° |
| 2026-04-27 12:19 | 28.24017 | 47.52756 | 27999 ft | 381 kts | 229° |
| 2026-04-27 12:20 | 28.22253 | 47.50511 | 28410 ft | 380 kts | 236° |
| 2026-04-27 12:20 | 28.20859 | 47.47977 | 28812 ft | 379 kts | 244° |
| 2026-04-27 12:20 | 28.19861 | 47.45209 | 29210 ft | 380 kts | 252° |
| 2026-04-27 12:20 | 28.19271 | 47.42279 | 29590 ft | 382 kts | 258° |
| 2026-04-27 12:21 | 28.18807 | 47.39312 | 29949 ft | 383 kts | 258° |
| 2026-04-27 12:21 | 28.18330 | 47.36332 | 30288 ft | 384 kts | 258° |
| 2026-04-27 12:21 | 28.17845 | 47.33339 | 30627 ft | 386 kts | 258° |
| 2026-04-27 12:21 | 28.17371 | 47.30426 | 30965 ft | 386 kts | 258° |
| 2026-04-27 12:22 | 28.16879 | 47.27405 | 31396 ft | 384 kts | 258° |
| 2026-04-27 12:22 | 28.16395 | 47.24432 | 31854 ft | 382 kts | 258° |
| 2026-04-27 12:22 | 28.15914 | 47.21475 | 32307 ft | 380 kts | 258° |
| 2026-04-27 12:22 | 28.15434 | 47.18535 | 32742 ft | 378 kts | 258° |
| 2026-04-27 12:23 | 28.14957 | 47.15616 | 33171 ft | 376 kts | 258° |
| 2026-04-27 12:23 | 28.14482 | 47.12715 | 33589 ft | 374 kts | 258° |
| 2026-04-27 12:23 | 28.14009 | 47.09825 | 33987 ft | 372 kts | 258° |
| 2026-04-27 12:23 | 28.13536 | 47.06944 | 34304 ft | 372 kts | 258° |
| 2026-04-27 12:24 | 28.13063 | 47.04063 | 34576 ft | 371 kts | 258° |
| 2026-04-27 12:24 | 28.12590 | 47.01188 | 34830 ft | 371 kts | 258° |
| 2026-04-27 12:24 | 28.12123 | 46.98352 | 35080 ft | 370 kts | 258° |
| 2026-04-27 12:24 | 28.11644 | 46.95447 | 35326 ft | 370 kts | 258° |
| 2026-04-27 12:25 | 28.11171 | 46.92584 | 35556 ft | 370 kts | 258° |
| 2026-04-27 12:25 | 28.10697 | 46.89717 | 35782 ft | 369 kts | 258° |
| 2026-04-27 12:25 | 28.10230 | 46.86894 | 36020 ft | 369 kts | 259° |
| 2026-04-27 12:25 | 28.09756 | 46.84032 | 36247 ft | 369 kts | 259° |
| 2026-04-27 12:26 | 28.09284 | 46.81180 | 36472 ft | 368 kts | 259° |
| 2026-04-27 12:26 | 28.08811 | 46.78324 | 36693 ft | 368 kts | 259° |
| 2026-04-27 12:26 | 28.08338 | 46.75474 | 36898 ft | 367 kts | 259° |
| 2026-04-27 12:26 | 28.07866 | 46.72635 | 37117 ft | 367 kts | 259° |
| 2026-04-27 12:27 | 28.07393 | 46.69797 | 37313 ft | 367 kts | 259° |
| 2026-04-27 12:27 | 28.06920 | 46.66959 | 37501 ft | 366 kts | 259° |
| 2026-04-27 12:27 | 28.06448 | 46.64129 | 37693 ft | 366 kts | 259° |
| 2026-04-27 12:27 | 28.05981 | 46.61334 | 37794 ft | 366 kts | 259° |
| 2026-04-27 12:28 | 28.05509 | 46.58503 | 37799 ft | 365 kts | 259° |
| 2026-04-27 12:28 | 28.04565 | 46.52856 | 37802 ft | 365 kts | 259° |
| 2026-04-27 12:29 | 28.03617 | 46.47197 | 37805 ft | 365 kts | 259° |
| 2026-04-27 12:29 | 28.02829 | 46.42507 | 37803 ft | 365 kts | 259° |
| 2026-04-27 12:30 | 28.01717 | 46.35902 | 37806 ft | 365 kts | 259° |
| 2026-04-27 12:30 | 28.00769 | 46.30291 | 37806 ft | 365 kts | 259° |
| 2026-04-27 12:31 | 27.99965 | 46.25547 | 37810 ft | 365 kts | 259° |
| 2026-04-27 12:31 | 27.99014 | 46.19944 | 37812 ft | 365 kts | 258° |
| 2026-04-27 12:32 | 27.98060 | 46.14293 | 37818 ft | 366 kts | 259° |
| 2026-04-27 12:32 | 27.97109 | 46.08629 | 37817 ft | 366 kts | 259° |
| 2026-04-27 12:33 | 27.96003 | 46.02066 | 37812 ft | 366 kts | 259° |
| 2026-04-27 12:33 | 27.95201 | 45.97329 | 37813 ft | 366 kts | 258° |
| 2026-04-27 12:34 | 27.94249 | 45.91718 | 37808 ft | 366 kts | 258° |
| 2026-04-27 12:34 | 27.93288 | 45.86069 | 37807 ft | 366 kts | 258° |
| 2026-04-27 12:35 | 27.92324 | 45.80415 | 37805 ft | 366 kts | 258° |
| 2026-04-27 12:35 | 27.91359 | 45.74768 | 37802 ft | 366 kts | 258° |
| 2026-04-27 12:36 | 27.90387 | 45.69100 | 37799 ft | 366 kts | 258° |
| 2026-04-27 12:36 | 27.89421 | 45.63479 | 37795 ft | 366 kts | 258° |
| 2026-04-27 12:37 | 27.87928 | 45.57974 | 37791 ft | 368 kts | 247° |
| 2026-04-27 12:37 | 27.85251 | 45.53020 | 37790 ft | 373 kts | 236° |
| 2026-04-27 12:38 | 27.81556 | 45.48818 | 37785 ft | 379 kts | 229° |
| 2026-04-27 12:38 | 27.77693 | 45.44805 | 37792 ft | 379 kts | 229° |
| 2026-04-27 12:39 | 27.73806 | 45.40763 | 37794 ft | 380 kts | 229° |
| 2026-04-27 12:39 | 27.69915 | 45.36726 | 37795 ft | 380 kts | 229° |
| 2026-04-27 12:40 | 27.66013 | 45.32685 | 37800 ft | 381 kts | 229° |
| 2026-04-27 12:40 | 27.62108 | 45.28645 | 37799 ft | 381 kts | 229° |
| 2026-04-27 12:41 | 27.58201 | 45.24607 | 37802 ft | 381 kts | 229° |
| 2026-04-27 12:41 | 27.54399 | 45.20466 | 37808 ft | 378 kts | 232° |
| 2026-04-27 12:42 | 27.50741 | 45.16197 | 37811 ft | 379 kts | 232° |
| 2026-04-27 12:42 | 27.47076 | 45.11935 | 37807 ft | 379 kts | 232° |
| 2026-04-27 12:43 | 27.43423 | 45.07695 | 37812 ft | 379 kts | 232° |
| 2026-04-27 12:43 | 27.39747 | 45.03433 | 37816 ft | 379 kts | 232° |
| 2026-04-27 12:44 | 27.36070 | 44.99173 | 37818 ft | 379 kts | 232° |
| 2026-04-27 12:44 | 27.32395 | 44.94922 | 37817 ft | 379 kts | 232° |
| 2026-04-27 12:45 | 27.28738 | 44.90693 | 37814 ft | 379 kts | 232° |
| 2026-04-27 12:45 | 27.25063 | 44.86450 | 37819 ft | 378 kts | 232° |
| 2026-04-27 12:46 | 27.21385 | 44.82205 | 37821 ft | 379 kts | 232° |
| 2026-04-27 12:46 | 27.17706 | 44.77966 | 37819 ft | 379 kts | 232° |
| 2026-04-27 12:47 | 27.14022 | 44.73724 | 37813 ft | 378 kts | 232° |
| 2026-04-27 12:47 | 27.10344 | 44.69493 | 37810 ft | 378 kts | 232° |
| 2026-04-27 12:48 | 27.06686 | 44.65291 | 37812 ft | 378 kts | 232° |
| 2026-04-27 12:48 | 27.02994 | 44.61053 | 37812 ft | 379 kts | 232° |
| 2026-04-27 12:49 | 26.99329 | 44.56849 | 37820 ft | 379 kts | 232° |
| 2026-04-27 12:49 | 26.95629 | 44.52613 | 37822 ft | 379 kts | 232° |
| 2026-04-27 12:50 | 26.91932 | 44.48387 | 37814 ft | 380 kts | 232° |
| 2026-04-27 12:50 | 26.88228 | 44.44157 | 37827 ft | 381 kts | 232° |
| 2026-04-27 12:51 | 26.84511 | 44.39916 | 37828 ft | 381 kts | 231° |
| 2026-04-27 12:51 | 26.80789 | 44.35673 | 37829 ft | 382 kts | 231° |
| 2026-04-27 12:52 | 26.77090 | 44.31461 | 37826 ft | 382 kts | 231° |
| 2026-04-27 12:52 | 26.73355 | 44.27211 | 37834 ft | 383 kts | 231° |
| 2026-04-27 12:53 | 26.67745 | 44.20834 | 37838 ft | 383 kts | 231° |
| 2026-04-27 12:53 | 26.63998 | 44.16582 | 37833 ft | 383 kts | 231° |
| 2026-04-27 12:54 | 26.60274 | 44.12359 | 37837 ft | 383 kts | 231° |
| 2026-04-27 12:54 | 26.56523 | 44.08110 | 37834 ft | 383 kts | 231° |
| 2026-04-27 12:55 | 26.52769 | 44.03861 | 37839 ft | 384 kts | 231° |
| 2026-04-27 12:55 | 26.49018 | 43.99620 | 37834 ft | 384 kts | 231° |
| 2026-04-27 12:56 | 26.45284 | 43.95402 | 37834 ft | 384 kts | 231° |
| 2026-04-27 12:56 | 26.41526 | 43.91162 | 37836 ft | 385 kts | 231° |
| 2026-04-27 12:57 | 26.37759 | 43.86916 | 37832 ft | 385 kts | 231° |
| 2026-04-27 12:57 | 26.33989 | 43.82662 | 37826 ft | 385 kts | 232° |
| 2026-04-27 12:58 | 26.30595 | 43.78100 | 37828 ft | 380 kts | 239° |
| 2026-04-27 12:58 | 26.27864 | 43.73134 | 37830 ft | 376 kts | 246° |
| 2026-04-27 12:59 | 26.25656 | 43.67851 | 37829 ft | 376 kts | 248° |
| 2026-04-27 12:59 | 26.23493 | 43.62567 | 37839 ft | 376 kts | 248° |
| 2026-04-27 13:00 | 26.21313 | 43.57267 | 37843 ft | 376 kts | 248° |
| 2026-04-27 13:00 | 26.19131 | 43.51970 | 37845 ft | 376 kts | 248° |
| 2026-04-27 13:01 | 26.16946 | 43.46669 | 37853 ft | 377 kts | 248° |
| 2026-04-27 13:01 | 26.14756 | 43.41363 | 37854 ft | 377 kts | 248° |
| 2026-04-27 13:02 | 26.12565 | 43.36063 | 37857 ft | 377 kts | 248° |
| 2026-04-27 13:02 | 26.10385 | 43.30795 | 37861 ft | 377 kts | 248° |
| 2026-04-27 13:03 | 26.08195 | 43.25508 | 37858 ft | 376 kts | 248° |
| 2026-04-27 13:03 | 26.05998 | 43.20211 | 37858 ft | 377 kts | 248° |
| 2026-04-27 13:04 | 26.03798 | 43.14914 | 37853 ft | 377 kts | 248° |
| 2026-04-27 13:04 | 26.01594 | 43.09616 | 37856 ft | 377 kts | 248° |
| 2026-04-27 13:05 | 25.99390 | 43.04324 | 37853 ft | 377 kts | 248° |
| 2026-04-27 13:05 | 25.97185 | 42.99037 | 37854 ft | 377 kts | 248° |
| 2026-04-27 13:06 | 25.94977 | 42.93749 | 37848 ft | 377 kts | 248° |
| 2026-04-27 13:06 | 25.92782 | 42.88497 | 37850 ft | 378 kts | 248° |
| 2026-04-27 13:07 | 25.90566 | 42.83202 | 37845 ft | 378 kts | 248° |
| 2026-04-27 13:07 | 25.88346 | 42.77906 | 37852 ft | 378 kts | 248° |
| 2026-04-27 13:08 | 25.86123 | 42.72609 | 37854 ft | 378 kts | 248° |
| 2026-04-27 13:08 | 25.83900 | 42.67317 | 37847 ft | 378 kts | 248° |
| 2026-04-27 13:09 | 25.81670 | 42.62016 | 37851 ft | 379 kts | 248° |
| 2026-04-27 13:09 | 25.79455 | 42.56755 | 37859 ft | 379 kts | 248° |
| 2026-04-27 13:10 | 25.77212 | 42.51437 | 37858 ft | 379 kts | 248° |
| 2026-04-27 13:10 | 25.74986 | 42.46164 | 37858 ft | 379 kts | 248° |
| 2026-04-27 13:11 | 25.72740 | 42.40852 | 37855 ft | 380 kts | 248° |
| 2026-04-27 13:11 | 25.70493 | 42.35542 | 37857 ft | 380 kts | 248° |
| 2026-04-27 13:12 | 25.68262 | 42.30278 | 37857 ft | 380 kts | 248° |
| 2026-04-27 13:12 | 25.66009 | 42.24967 | 37857 ft | 380 kts | 248° |
| 2026-04-27 13:13 | 25.63753 | 42.19661 | 37861 ft | 380 kts | 247° |
| 2026-04-27 13:13 | 25.61495 | 42.14354 | 37851 ft | 381 kts | 247° |
| 2026-04-27 13:14 | 25.59233 | 42.09043 | 37857 ft | 381 kts | 247° |
| 2026-04-27 13:14 | 25.56978 | 42.03755 | 37852 ft | 382 kts | 247° |
| 2026-04-27 13:15 | 25.54704 | 41.98431 | 37865 ft | 382 kts | 247° |
| 2026-04-27 13:15 | 25.52427 | 41.93104 | 37868 ft | 383 kts | 247° |
| 2026-04-27 13:16 | 25.50144 | 41.87774 | 37862 ft | 383 kts | 247° |
| 2026-04-27 13:16 | 25.48244 | 41.83340 | 37864 ft | 383 kts | 247° |
| 2026-04-27 13:17 | 25.45580 | 41.77131 | 37865 ft | 384 kts | 247° |
| 2026-04-27 13:17 | 25.43660 | 41.72661 | 37864 ft | 384 kts | 247° |
| 2026-04-27 13:18 | 25.40994 | 41.66465 | 37866 ft | 384 kts | 247° |
| 2026-04-27 13:18 | 25.39068 | 41.61992 | 37865 ft | 384 kts | 247° |
| 2026-04-27 13:19 | 25.36779 | 41.56683 | 37871 ft | 384 kts | 247° |
| 2026-04-27 13:19 | 25.34475 | 41.51346 | 37870 ft | 385 kts | 247° |
| 2026-04-27 13:20 | 25.32165 | 41.46002 | 37876 ft | 385 kts | 247° |
| 2026-04-27 13:20 | 25.29856 | 41.40666 | 37876 ft | 385 kts | 247° |
| 2026-04-27 13:21 | 25.27546 | 41.35334 | 37877 ft | 385 kts | 247° |
| 2026-04-27 13:21 | 25.25244 | 41.30026 | 37878 ft | 384 kts | 247° |
| 2026-04-27 13:22 | 25.22925 | 41.24686 | 37882 ft | 384 kts | 247° |
| 2026-04-27 13:22 | 25.20621 | 41.19388 | 37880 ft | 384 kts | 247° |
| 2026-04-27 13:23 | 25.18303 | 41.14062 | 37880 ft | 384 kts | 247° |
| 2026-04-27 13:23 | 25.15986 | 41.08748 | 37882 ft | 384 kts | 247° |
| 2026-04-27 13:24 | 25.13669 | 41.03438 | 37884 ft | 384 kts | 247° |
| 2026-04-27 13:24 | 25.11349 | 40.98127 | 37885 ft | 384 kts | 247° |
| 2026-04-27 13:25 | 25.09027 | 40.92817 | 37882 ft | 384 kts | 247° |
| 2026-04-27 13:25 | 25.06701 | 40.87510 | 37863 ft | 384 kts | 247° |
| 2026-04-27 13:26 | 25.04384 | 40.82230 | 37866 ft | 384 kts | 247° |
| 2026-04-27 13:26 | 25.02055 | 40.76927 | 37862 ft | 384 kts | 247° |
| 2026-04-27 13:27 | 24.99718 | 40.71612 | 37866 ft | 384 kts | 247° |
| 2026-04-27 13:27 | 24.97396 | 40.66337 | 37863 ft | 384 kts | 247° |
| 2026-04-27 13:28 | 24.95055 | 40.61027 | 37862 ft | 384 kts | 247° |
| 2026-04-27 13:28 | 24.92712 | 40.55718 | 37855 ft | 384 kts | 247° |
| 2026-04-27 13:29 | 24.90386 | 40.50453 | 37855 ft | 384 kts | 247° |
| 2026-04-27 13:29 | 24.88038 | 40.45145 | 37852 ft | 385 kts | 247° |
| 2026-04-27 13:30 | 24.85689 | 40.39840 | 37853 ft | 385 kts | 247° |
| 2026-04-27 13:30 | 24.83341 | 40.34544 | 37853 ft | 384 kts | 247° |
| 2026-04-27 13:31 | 24.81005 | 40.29280 | 37857 ft | 385 kts | 247° |
| 2026-04-27 13:31 | 24.78647 | 40.23974 | 37866 ft | 385 kts | 247° |
| 2026-04-27 13:32 | 24.76290 | 40.18675 | 37872 ft | 385 kts | 247° |
| 2026-04-27 13:32 | 24.73946 | 40.13411 | 37865 ft | 386 kts | 247° |
| 2026-04-27 13:33 | 24.71582 | 40.08112 | 37871 ft | 385 kts | 247° |
| 2026-04-27 13:33 | 24.69213 | 40.02805 | 37874 ft | 386 kts | 247° |
| 2026-04-27 13:34 | 24.66848 | 39.97513 | 37876 ft | 386 kts | 247° |
| 2026-04-27 13:34 | 24.64479 | 39.92220 | 37881 ft | 385 kts | 247° |
| 2026-04-27 13:35 | 24.62120 | 39.86955 | 37881 ft | 386 kts | 247° |
| 2026-04-27 13:35 | 24.59746 | 39.81661 | 37885 ft | 386 kts | 247° |
| 2026-04-27 13:36 | 24.57239 | 39.76441 | 37880 ft | 389 kts | 240° |
| 2026-04-27 13:36 | 24.53622 | 39.71938 | 37875 ft | 399 kts | 227° |
| 2026-04-27 13:37 | 24.48876 | 39.68607 | 37865 ft | 414 kts | 212° |
| 2026-04-27 13:37 | 24.43378 | 39.66542 | 37861 ft | 421 kts | 206° |
| 2026-04-27 13:38 | 24.37791 | 39.64585 | 37861 ft | 422 kts | 207° |
| 2026-04-27 13:38 | 24.32196 | 39.62621 | 37863 ft | 422 kts | 207° |
| 2026-04-27 13:39 | 24.26594 | 39.60659 | 37868 ft | 423 kts | 207° |
| 2026-04-27 13:39 | 24.20977 | 39.58694 | 37874 ft | 424 kts | 206° |
| 2026-04-27 13:40 | 24.15345 | 39.56726 | 37883 ft | 425 kts | 206° |
| 2026-04-27 13:40 | 24.09734 | 39.54767 | 37890 ft | 426 kts | 206° |
| 2026-04-27 13:41 | 24.04077 | 39.52794 | 37893 ft | 427 kts | 206° |
| 2026-04-27 13:41 | 23.98415 | 39.50821 | 37902 ft | 428 kts | 206° |
| 2026-04-27 13:42 | 23.92721 | 39.48838 | 37908 ft | 430 kts | 206° |
| 2026-04-27 13:42 | 23.87012 | 39.46854 | 37906 ft | 430 kts | 206° |
| 2026-04-27 13:43 | 23.81330 | 39.44879 | 37912 ft | 428 kts | 206° |
| 2026-04-27 13:43 | 23.75627 | 39.42897 | 37900 ft | 429 kts | 206° |
| 2026-04-27 13:44 | 23.69971 | 39.40939 | 37897 ft | 428 kts | 206° |
| 2026-04-27 13:44 | 23.64286 | 39.38974 | 37888 ft | 428 kts | 206° |
| 2026-04-27 13:45 | 23.58569 | 39.36997 | 37886 ft | 431 kts | 206° |
| 2026-04-27 13:45 | 23.52855 | 39.35022 | 37884 ft | 430 kts | 206° |
| 2026-04-27 13:46 | 23.47144 | 39.33049 | 37876 ft | 431 kts | 206° |
| 2026-04-27 13:46 | 23.41408 | 39.31069 | 37868 ft | 431 kts | 206° |
| 2026-04-27 13:47 | 23.35717 | 39.29108 | 37866 ft | 432 kts | 206° |
| 2026-04-27 13:47 | 23.29988 | 39.27135 | 37864 ft | 432 kts | 206° |
| 2026-04-27 13:48 | 23.24252 | 39.25161 | 37860 ft | 432 kts | 205° |
| 2026-04-27 13:48 | 23.18510 | 39.23188 | 37852 ft | 433 kts | 205° |
| 2026-04-27 13:49 | 23.12756 | 39.21211 | 37850 ft | 432 kts | 205° |
| 2026-04-27 13:49 | 23.07020 | 39.19243 | 37849 ft | 432 kts | 205° |
| 2026-04-27 13:50 | 23.01288 | 39.17277 | 37849 ft | 432 kts | 205° |
| 2026-04-27 13:50 | 22.95543 | 39.15309 | 37849 ft | 433 kts | 205° |
| 2026-04-27 13:51 | 22.89831 | 39.13355 | 37849 ft | 433 kts | 205° |
| 2026-04-27 13:51 | 22.84065 | 39.11398 | 37846 ft | 435 kts | 203° |
| 2026-04-27 13:52 | 22.78058 | 39.10101 | 37848 ft | 445 kts | 194° |
| 2026-04-27 13:52 | 22.71795 | 39.09869 | 37846 ft | 455 kts | 186° |
| 2026-04-27 13:53 | 22.65480 | 39.11066 | 37838 ft | 475 kts | 165° |
| 2026-04-27 13:53 | 22.62501 | 39.12707 | 37840 ft | 486 kts | 153° |
| 2026-04-27 13:54 | 22.57045 | 39.17071 | 37843 ft | 492 kts | 148° |
| 2026-04-27 13:54 | 22.51732 | 39.21772 | 37847 ft | 500 kts | 136° |
| 2026-04-27 13:54 | 22.49612 | 39.24783 | 37711 ft | 507 kts | 126° |
| 2026-04-27 13:55 | 22.47895 | 39.28131 | 37394 ft | 510 kts | 118° |
| 2026-04-27 13:55 | 22.46317 | 39.31557 | 36790 ft | 510 kts | 122° |
| 2026-04-27 13:55 | 22.44478 | 39.34833 | 35956 ft | 511 kts | 128° |
| 2026-04-27 13:55 | 22.42291 | 39.37847 | 35197 ft | 506 kts | 140° |
| 2026-04-27 13:56 | 22.39671 | 39.40316 | 34536 ft | 496 kts | 151° |
| 2026-04-27 13:56 | 22.36756 | 39.42163 | 33692 ft | 489 kts | 163° |
| 2026-04-27 13:56 | 22.33592 | 39.43315 | 33120 ft | 470 kts | 176° |
| 2026-04-27 13:56 | 22.30428 | 39.43754 | 32453 ft | 448 kts | 187° |
| 2026-04-27 13:57 | 22.27394 | 39.43494 | 31694 ft | 427 kts | 200° |
| 2026-04-27 13:57 | 22.24628 | 39.42564 | 30969 ft | 407 kts | 212° |
| 2026-04-27 13:57 | 22.22258 | 39.41023 | 30340 ft | 389 kts | 226° |
| 2026-04-27 13:57 | 22.20463 | 39.38965 | 30178 ft | 366 kts | 239° |
| 2026-04-27 13:58 | 22.19345 | 39.36626 | 29989 ft | 349 kts | 253° |
| 2026-04-27 13:58 | 22.18842 | 39.34087 | 29462 ft | 344 kts | 263° |
| 2026-04-27 13:58 | 22.18608 | 39.31524 | 28914 ft | 342 kts | 264° |
| 2026-04-27 13:58 | 22.18433 | 39.28975 | 28377 ft | 339 kts | 265° |
| 2026-04-27 13:59 | 22.18271 | 39.26437 | 27870 ft | 337 kts | 265° |
| 2026-04-27 13:59 | 22.18115 | 39.23934 | 27363 ft | 334 kts | 264° |
| 2026-04-27 13:59 | 22.17851 | 39.21461 | 26871 ft | 330 kts | 257° |
| 2026-04-27 13:59 | 22.17094 | 39.19153 | 26499 ft | 325 kts | 244° |
| 2026-04-27 14:00 | 22.15869 | 39.17114 | 26076 ft | 323 kts | 234° |
| 2026-04-27 14:00 | 22.14364 | 39.15314 | 25619 ft | 323 kts | 229° |
| 2026-04-27 14:00 | 22.12728 | 39.13662 | 25188 ft | 321 kts | 226° |
| 2026-04-27 14:00 | 22.11011 | 39.12112 | 24746 ft | 321 kts | 221° |
| 2026-04-27 14:01 | 22.09122 | 39.10808 | 24303 ft | 323 kts | 214° |
| 2026-04-27 14:01 | 22.07104 | 39.09776 | 23860 ft | 326 kts | 208° |
| 2026-04-27 14:01 | 22.04966 | 39.08945 | 23408 ft | 326 kts | 206° |
| 2026-04-27 14:01 | 22.02839 | 39.08125 | 22923 ft | 323 kts | 206° |
| 2026-04-27 14:02 | 22.00738 | 39.07306 | 22483 ft | 319 kts | 206° |
| 2026-04-27 14:02 | 21.98665 | 39.06493 | 22048 ft | 316 kts | 206° |
| 2026-04-27 14:02 | 21.97268 | 39.05946 | 21754 ft | 314 kts | 206° |
| 2026-04-27 14:02 | 21.95231 | 39.05146 | 21331 ft | 311 kts | 206° |
| 2026-04-27 14:03 | 21.93208 | 39.04353 | 20915 ft | 308 kts | 206° |
| 2026-04-27 14:03 | 21.90555 | 39.03314 | 20370 ft | 305 kts | 206° |
| 2026-04-27 14:03 | 21.89235 | 39.02797 | 20102 ft | 304 kts | 206° |
| 2026-04-27 14:03 | 21.87254 | 39.02020 | 19691 ft | 302 kts | 206° |
| 2026-04-27 14:04 | 21.85304 | 39.01259 | 19506 ft | 292 kts | 206° |
| 2026-04-27 14:04 | 21.83426 | 39.00530 | 19408 ft | 280 kts | 206° |
| 2026-04-27 14:04 | 21.81634 | 38.99834 | 19319 ft | 267 kts | 206° |
| 2026-04-27 14:04 | 21.79917 | 38.99165 | 19141 ft | 259 kts | 206° |
| 2026-04-27 14:05 | 21.78206 | 38.98679 | 19063 ft | 253 kts | 193° |
| 2026-04-27 14:05 | 21.76411 | 38.98793 | 18937 ft | 270 kts | 174° |
| 2026-04-27 14:05 | 21.74609 | 38.99473 | 18887 ft | 275 kts | 168° |
| 2026-04-27 14:05 | 21.72819 | 39.00206 | 18594 ft | 277 kts | 168° |
| 2026-04-27 14:06 | 21.70993 | 39.00943 | 18145 ft | 283 kts | 168° |
| 2026-04-27 14:06 | 21.69149 | 39.01685 | 17756 ft | 282 kts | 167° |
| 2026-04-27 14:06 | 21.67322 | 39.02420 | 17400 ft | 280 kts | 167° |
| 2026-04-27 14:06 | 21.65501 | 39.03151 | 17035 ft | 278 kts | 167° |
| 2026-04-27 14:07 | 21.63697 | 39.03862 | 16584 ft | 275 kts | 167° |
| 2026-04-27 14:07 | 21.61924 | 39.04553 | 16074 ft | 273 kts | 167° |
| 2026-04-27 14:07 | 21.60141 | 39.05247 | 15623 ft | 271 kts | 167° |
| 2026-04-27 14:07 | 21.58371 | 39.05938 | 15256 ft | 270 kts | 167° |
| 2026-04-27 14:08 | 21.56605 | 39.06627 | 14905 ft | 270 kts | 166° |
| 2026-04-27 14:08 | 21.54844 | 39.07315 | 14557 ft | 269 kts | 166° |
| 2026-04-27 14:08 | 21.53099 | 39.07999 | 14306 ft | 264 kts | 166° |
| 2026-04-27 14:08 | 21.51385 | 39.08672 | 14026 ft | 261 kts | 166° |
| 2026-04-27 14:09 | 21.49687 | 39.09340 | 13687 ft | 260 kts | 166° |
| 2026-04-27 14:09 | 21.47986 | 39.10013 | 13314 ft | 260 kts | 165° |
| 2026-04-27 14:09 | 21.46296 | 39.10681 | 12969 ft | 258 kts | 165° |
| 2026-04-27 14:09 | 21.44620 | 39.11344 | 12626 ft | 256 kts | 165° |
| 2026-04-27 14:10 | 21.42954 | 39.12002 | 12284 ft | 254 kts | 165° |
| 2026-04-27 14:10 | 21.41295 | 39.12657 | 11949 ft | 253 kts | 165° |
| 2026-04-27 14:10 | 21.39650 | 39.13308 | 11604 ft | 252 kts | 164° |
| 2026-04-27 14:10 | 21.38030 | 39.13949 | 11271 ft | 251 kts | 164° |
| 2026-04-27 14:11 | 21.36395 | 39.14595 | 10937 ft | 250 kts | 164° |
| 2026-04-27 14:11 | 21.34763 | 39.15240 | 10602 ft | 250 kts | 164° |
| 2026-04-27 14:11 | 21.33135 | 39.15883 | 10266 ft | 250 kts | 164° |
| 2026-04-27 14:11 | 21.31503 | 39.16527 | 9939 ft | 250 kts | 163° |
| 2026-04-27 14:12 | 21.29874 | 39.17170 | 9598 ft | 249 kts | 163° |
| 2026-04-27 14:12 | 21.28262 | 39.17809 | 9333 ft | 245 kts | 163° |
| 2026-04-27 14:12 | 21.26669 | 39.18446 | 9004 ft | 244 kts | 161° |
| 2026-04-27 14:12 | 21.25292 | 39.19512 | 8639 ft | 251 kts | 131° |
| 2026-04-27 14:13 | 21.24556 | 39.21209 | 8328 ft | 255 kts | 102° |
| 2026-04-27 14:13 | 21.24671 | 39.23091 | 8032 ft | 256 kts | 75° |
| 2026-04-27 14:13 | 21.25301 | 39.24878 | 7728 ft | 257 kts | 67° |
| 2026-04-27 14:13 | 21.26040 | 39.26622 | 7408 ft | 257 kts | 65° |
| 2026-04-27 14:14 | 21.27130 | 39.28080 | 7103 ft | 254 kts | 32° |
| 2026-04-27 14:14 | 21.28781 | 39.28613 | 6806 ft | 249 kts | 358° |
| 2026-04-27 14:14 | 21.30476 | 39.28343 | 6597 ft | 242 kts | 343° |
| 2026-04-27 14:14 | 21.32063 | 39.27792 | 6385 ft | 238 kts | 339° |
| 2026-04-27 14:15 | 21.33605 | 39.27179 | 6177 ft | 233 kts | 338° |
| 2026-04-27 14:15 | 21.35085 | 39.26593 | 6067 ft | 222 kts | 339° |
| 2026-04-27 14:15 | 21.36514 | 39.26030 | 5877 ft | 216 kts | 339° |
| 2026-04-27 14:15 | 21.37914 | 39.25478 | 5660 ft | 212 kts | 339° |
| 2026-04-27 14:16 | 21.39290 | 39.24935 | 5420 ft | 209 kts | 339° |
| 2026-04-27 14:16 | 21.40642 | 39.24402 | 5185 ft | 206 kts | 339° |
| 2026-04-27 14:16 | 21.41999 | 39.23866 | 4946 ft | 207 kts | 339° |
| 2026-04-27 14:16 | 21.43332 | 39.23340 | 4702 ft | 206 kts | 340° |
| 2026-04-27 14:17 | 21.44671 | 39.22811 | 4444 ft | 205 kts | 340° |
| 2026-04-27 14:17 | 21.46005 | 39.22285 | 4183 ft | 203 kts | 339° |
| 2026-04-27 14:17 | 21.47327 | 39.21763 | 3936 ft | 202 kts | 339° |
| 2026-04-27 14:17 | 21.48631 | 39.21248 | 3692 ft | 201 kts | 339° |
| 2026-04-27 14:18 | 21.49921 | 39.20739 | 3453 ft | 192 kts | 339° |
| 2026-04-27 14:18 | 21.51153 | 39.20251 | 3209 ft | 186 kts | 339° |
| 2026-04-27 14:18 | 21.52344 | 39.19779 | 2972 ft | 180 kts | 339° |
| 2026-04-27 14:18 | 21.53508 | 39.19320 | 2743 ft | 176 kts | 339° |
| 2026-04-27 14:19 | 21.54643 | 39.18872 | 2511 ft | 171 kts | 338° |
| 2026-04-27 14:19 | 21.55744 | 39.18436 | 2307 ft | 167 kts | 338° |
| 2026-04-27 14:19 | 21.56818 | 39.18010 | 2093 ft | 162 kts | 339° |
| 2026-04-27 14:19 | 21.57840 | 39.17607 | 1893 ft | 150 kts | 339° |
| 2026-04-27 14:20 | 21.58756 | 39.17244 | 1700 ft | 135 kts | 339° |
| 2026-04-27 14:20 | 21.59602 | 39.16911 | 1554 ft | 122 kts | 337° |
| 2026-04-27 14:20 | 21.60358 | 39.16611 | 1393 ft | 110 kts | 337° |
| 2026-04-27 14:20 | 21.61094 | 39.16318 | 1256 ft | 117 kts | 337° |
| 2026-04-27 14:21 | 21.61871 | 39.16012 | 1089 ft | 120 kts | 338° |
| 2026-04-27 14:21 | 21.62667 | 39.15695 | 942 ft | 123 kts | 337° |
| 2026-04-27 14:21 | 21.63473 | 39.15370 | 873 ft | 124 kts | 338° |
| 2026-04-27 14:21 | 21.64295 | 39.15051 | 692 ft | 126 kts | 338° |
| 2026-04-27 14:22 | 21.65115 | 39.14737 | 476 ft | 124 kts | 337° |
| 2026-04-27 14:22 | 21.65914 | 39.14423 | 299 ft | 120 kts | 335° |
| 2026-04-27 14:22 | 21.66682 | 39.14105 | 143 ft | 116 kts | 336° |
| 2026-04-27 14:22 | 21.67450 | 39.13802 | 31 ft | 118 kts | 338° |
| 2026-04-27 14:23 | 21.68023 | 39.13573 | 26 ft | 46 kts | 339° |
| 2026-04-27 14:23 | 21.68239 | 39.13489 | 22 ft | 30 kts | 340° |
| 2026-04-27 14:23 | 21.68431 | 39.13423 | 23 ft | 28 kts | 350° |
| 2026-04-27 14:23 | 21.68626 | 39.13424 | 22 ft | 22 kts | 9° |
| 2026-04-27 14:24 | 21.68687 | 39.13436 | 25 ft | 1 kts | 11° |
| 2026-04-27 14:24 | 21.68699 | 39.13441 | 23 ft | 2 kts | 32° |
| 2026-04-27 14:24 | 21.68699 | 39.13458 | 23 ft | 3 kts | 110° |
| 2026-04-27 14:24 | 21.68679 | 39.13481 | 22 ft | 6 kts | 135° |
| 2026-04-27 14:25 | 21.68642 | 39.13525 | 22 ft | 10 kts | 132° |
| 2026-04-27 14:25 | 21.68575 | 39.13574 | 24 ft | 14 kts | 155° |
| 2026-04-27 14:25 | 21.68474 | 39.13615 | 22 ft | 17 kts | 160° |
| 2026-04-27 14:25 | 21.68358 | 39.13661 | 24 ft | 15 kts | 158° |
| 2026-04-27 14:26 | 21.68332 | 39.13737 | 23 ft | 13 kts | 71° |
| 2026-04-27 14:26 | 21.68366 | 39.13836 | 24 ft | 16 kts | 70° |
| 2026-04-27 14:26 | 21.68408 | 39.13956 | 24 ft | 18 kts | 70° |
| 2026-04-27 14:26 | 21.68455 | 39.14094 | 29 ft | 21 kts | 70° |
| 2026-04-27 14:27 | 21.68508 | 39.14248 | 27 ft | 23 kts | 69° |
| 2026-04-27 14:27 | 21.68566 | 39.14415 | 28 ft | 25 kts | 70° |
| 2026-04-27 14:27 | 21.68628 | 39.14594 | 29 ft | 27 kts | 70° |
| 2026-04-27 14:27 | 21.68694 | 39.14787 | 30 ft | 28 kts | 68° |
| 2026-04-27 14:28 | 21.68733 | 39.14898 | 30 ft | 10 kts | 70° |
| 2026-04-27 14:28 | 21.68761 | 39.14979 | 30 ft | 13 kts | 69° |
| 2026-04-27 14:28 | 21.68797 | 39.15085 | 30 ft | 17 kts | 71° |
| 2026-04-27 14:28 | 21.68822 | 39.15170 | 30 ft | 11 kts | 80° |
| 2026-04-27 14:29 | 21.68773 | 39.15229 | 30 ft | 10 kts | 155° |
| 2026-04-27 14:29 | 21.68749 | 39.15283 | 30 ft | 10 kts | 81° |
| 2026-04-27 14:29 | 21.68777 | 39.15369 | 29 ft | 14 kts | 70° |
| 2026-04-27 14:29 | 21.68815 | 39.15480 | 30 ft | 17 kts | 69° |
| 2026-04-27 14:30 | 21.68845 | 39.15568 | 30 ft | 9 kts | 73° |
| 2026-04-27 14:30 | 21.68812 | 39.15624 | 30 ft | 11 kts | 160° |
| 2026-04-27 14:30 | 21.68728 | 39.15658 | 30 ft | 15 kts | 158° |
| 2026-04-27 14:30 | 21.68619 | 39.15704 | 31 ft | 19 kts | 159° |
| 2026-04-27 14:31 | 21.68535 | 39.15738 | 31 ft | 8 kts | 160° |
| 2026-04-27 14:31 | 21.68483 | 39.15775 | 31 ft | 9 kts | 113° |
| 2026-04-27 14:31 | 21.68470 | 39.15850 | 32 ft | 12 kts | 129° |
| 2026-04-27 14:31 | 21.68387 | 39.15892 | 32 ft | 15 kts | 160° |
| 2026-04-27 14:32 | 21.68276 | 39.15936 | 32 ft | 19 kts | 160° |
| 2026-04-27 14:32 | 21.68141 | 39.15989 | 33 ft | 22 kts | 160° |
| 2026-04-27 14:32 | 21.67984 | 39.16051 | 33 ft | 25 kts | 160° |
| 2026-04-27 14:32 | 21.67840 | 39.16108 | 33 ft | 10 kts | 159° |
| 2026-04-27 14:33 | 21.67763 | 39.16138 | 33 ft | 14 kts | 160° |
| 2026-04-27 14:33 | 21.67662 | 39.16175 | 34 ft | 17 kts | 161° |
| 2026-04-27 14:33 | 21.67566 | 39.16212 | 34 ft | 11 kts | 160° |
| 2026-04-27 14:33 | 21.67539 | 39.16281 | 34 ft | 13 kts | 63° |
| 2026-04-27 14:34 | 21.67563 | 39.16362 | 35 ft | 10 kts | 90° |
| 2026-04-27 14:34 | 21.67515 | 39.16418 | 36 ft | 12 kts | 158° |
| 2026-04-27 14:34 | 21.67423 | 39.16454 | 36 ft | 16 kts | 160° |
| 2026-04-27 14:34 | 21.67312 | 39.16499 | 36 ft | 17 kts | 160° |
| 2026-04-27 14:35 | 21.67247 | 39.16562 | 37 ft | 14 kts | 99° |
| 2026-04-27 14:35 | 21.67232 | 39.16656 | 39 ft | 11 kts | 100° |
| 2026-04-27 14:35 | 21.67218 | 39.16743 | 40 ft | 13 kts | 99° |
| 2026-04-27 14:35 | 21.67213 | 39.16820 | 41 ft | 0 kts | 87° |
| 2026-04-27 14:36 | 21.67214 | 39.16828 | 42 ft | 2 kts | 86° |
| 2026-04-27 14:36 | 21.67217 | 39.16852 | 40 ft | 4 kts | 81° |
| 2026-04-27 14:36 | 21.67205 | 39.16876 | 43 ft | 4 kts | 155° |
| 2026-04-27 14:36 | 21.67172 | 39.16884 | 43 ft | 4 kts | 166° |
| 2026-04-27 14:37 | 21.67154 | 39.16889 | 43 ft | 2 kts | 166° |
| 2026-04-27 14:37 | 21.67141 | 39.16892 | 41 ft | 1 kts | 167° |
| 2026-04-27 14:37 | 21.67134 | 39.16894 | 43 ft | 2 kts | 167° |
| 2026-04-27 14:37 | 21.67130 | 39.16894 | 43 ft | 1 kts | 167° |
| 2026-04-27 14:38 | 21.67130 | 39.16895 | 43 ft | 0 kts | 167° |